Time;durP1;ratioP1;P1;durP2;ratioP2;P2;SDS_P1;SDS_P2;PMS_P1;PMS_P2;Temp;Humidity;BMP_temperature;BMP_pressure;BME280_temperature;BME280_humidity;BME280_pressure;Samples;Min_cycle;Max_cycle;Signal;HPM_P1;HPM_P2
2024/04/06 04:00:45;;;;;;;1.70;1.30;;;15.30;97.30;;;;;;5899680;23;20522;-89
2024/04/06 04:03:10;;;;;;;1.30;1.20;;;15.30;97.30;;;;;;4961096;28;20876;-94
2024/04/06 04:05:36;;;;;;;1.27;1.17;;;15.30;97.30;;;;;;4961556;28;20696;-92
2024/04/06 04:08:04;;;;;;;1.30;1.20;;;15.20;97.30;;;;;;4949826;28;20557;-89
2024/04/06 04:10:31;;;;;;;1.20;1.10;;;15.20;97.30;;;;;;4975278;23;20233;-66
2024/04/06 04:13:00;;;;;;;0.90;0.90;;;15.20;97.30;;;;;;4965625;28;20447;-66
2024/04/06 04:15:25;;;;;;;6.83;1.03;;;15.10;97.30;;;;;;4948992;29;20432;-66
2024/04/06 04:17:51;;;;;;;1.30;1.20;;;15.10;97.30;;;;;;4937504;29;20425;-66
2024/04/06 04:20:16;;;;;;;1.10;1.00;;;15.10;97.30;;;;;;4947723;28;20215;-66
2024/04/06 04:22:42;;;;;;;1.13;1.03;;;15.10;97.30;;;;;;4950935;28;20715;-66
2024/04/06 04:25:07;;;;;;;1.10;1.00;;;15.20;97.30;;;;;;4951131;29;20317;-67
2024/04/06 04:27:33;;;;;;;1.40;1.37;;;15.20;97.30;;;;;;4950404;28;20199;-66
2024/04/06 04:29:59;;;;;;;0.90;0.80;;;15.20;97.30;;;;;;4950928;28;20777;-66
2024/04/06 04:32:24;;;;;;;0.70;0.70;;;15.30;97.30;;;;;;4945407;28;20534;-67
2024/04/06 04:34:50;;;;;;;1.63;1.40;;;15.30;97.30;;;;;;4942878;29;20182;-66
2024/04/06 04:37:15;;;;;;;2.40;1.00;;;15.30;97.30;;;;;;4950351;29;20265;-66
2024/04/06 04:39:41;;;;;;;0.90;0.80;;;15.30;97.30;;;;;;4938663;29;20208;-66
2024/04/06 04:42:06;;;;;;;0.97;0.87;;;15.40;97.30;;;;;;4950459;28;20312;-66
2024/04/06 04:44:32;;;;;;;1.00;0.90;;;15.30;97.30;;;;;;4949948;29;20292;-66
2024/04/06 04:46:58;;;;;;;1.00;0.90;;;15.30;97.30;;;;;;4943157;29;20190;-66
2024/04/06 04:49:25;;;;;;;1.00;0.90;;;15.30;97.30;;;;;;4948743;29;20551;-66
2024/04/06 04:51:50;;;;;;;1.00;0.90;;;15.30;97.30;;;;;;4950828;28;20203;-66
2024/04/06 04:54:16;;;;;;;0.70;0.70;;;15.30;97.30;;;;;;4940811;29;20438;-66
2024/04/06 04:56:41;;;;;;;1.53;0.90;;;15.20;97.30;;;;;;4942791;29;20222;-66
2024/04/06 04:59:07;;;;;;;0.70;0.70;;;15.20;97.30;;;;;;4943572;29;20655;-66
2024/04/06 05:01:33;;;;;;;0.80;0.80;;;15.20;97.30;;;;;;4933036;29;20601;-66
2024/04/06 05:03:58;;;;;;;1.87;1.10;;;15.10;97.30;;;;;;4930796;29;20575;-66
2024/04/06 05:06:24;;;;;;;2.53;1.33;;;15.10;97.30;;;;;;4932964;29;20195;-66
2024/04/06 05:08:49;;;;;;;1.33;1.23;;;15.10;97.30;;;;;;4946664;28;20221;-66
2024/04/06 05:11:15;;;;;;;1.20;1.10;;;15.00;97.30;;;;;;4947482;29;20239;-66
2024/04/06 05:13:41;;;;;;;0.70;0.70;;;15.00;97.30;;;;;;4943140;29;20194;-66
2024/04/06 05:16:06;;;;;;;0.90;0.80;;;15.00;97.30;;;;;;4946677;29;20180;-66
2024/04/06 05:18:32;;;;;;;1.20;1.10;;;15.00;97.30;;;;;;4939468;29;20210;-66
2024/04/06 05:20:58;;;;;;;1.10;1.00;;;15.00;97.30;;;;;;4959941;28;20582;-66
2024/04/06 05:23:27;;;;;;;1.30;1.20;;;15.00;97.30;;;;;;4942934;28;20215;-66
2024/04/06 05:25:53;;;;;;;1.00;0.90;;;15.00;97.30;;;;;;4946340;29;20427;-67
2024/04/06 05:28:21;;;;;;;0.80;0.70;;;15.10;97.30;;;;;;4939491;29;20419;-66
2024/04/06 05:30:48;;;;;;;1.27;1.17;;;15.10;97.30;;;;;;4939409;28;20886;-66
2024/04/06 05:33:15;;;;;;;0.90;0.87;;;15.10;97.30;;;;;;4937582;29;20426;-66
2024/04/06 05:35:42;;;;;;;0.70;0.70;;;15.10;97.30;;;;;;4949714;29;20625;-66
2024/04/06 05:38:08;;;;;;;0.73;0.73;;;15.00;97.30;;;;;;4948347;28;20425;-66
2024/04/06 05:40:44;;;;;;;3.30;2.30;;;15.00;97.30;;;;;;4942596;28;20450;-66
2024/04/06 05:43:11;;;;;;;1.40;1.30;;;15.00;97.30;;;;;;4936025;28;20482;-66
2024/04/06 05:45:37;;;;;;;1.00;0.90;;;15.00;97.30;;;;;;4941737;29;20455;-66
2024/04/06 05:48:04;;;;;;;0.97;0.87;;;15.00;97.30;;;;;;4941229;29;20437;-66
2024/04/06 05:50:31;;;;;;;0.90;0.80;;;15.10;97.30;;;;;;4932816;29;20998;-66
2024/04/06 05:52:57;;;;;;;0.90;0.80;;;15.10;97.30;;;;;;4948778;28;20772;-66
2024/04/06 05:55:23;;;;;;;0.90;0.80;;;15.20;97.30;;;;;;4944574;28;21002;-67
2024/04/06 05:57:49;;;;;;;1.10;1.00;;;15.30;97.30;;;;;;4943705;28;20419;-66
2024/04/06 06:00:15;;;;;;;2.93;1.20;;;15.40;97.30;;;;;;4941399;28;20439;-67
2024/04/06 06:02:44;;;;;;;1.00;0.90;;;15.40;97.30;;;;;;4939905;28;20415;-66
2024/04/06 06:05:09;;;;;;;0.90;0.80;;;15.50;97.30;;;;;;4933186;28;20436;-66
2024/04/06 06:07:36;;;;;;;1.50;1.40;;;15.60;97.30;;;;;;4936972;29;20438;-67
2024/04/06 06:10:05;;;;;;;1.63;1.10;;;15.60;97.30;;;;;;4931362;29;20180;-67
2024/04/06 06:12:30;;;;;;;1.87;1.37;;;15.70;97.30;;;;;;4938803;29;20479;-66
2024/04/06 06:14:56;;;;;;;1.27;1.23;;;15.80;97.30;;;;;;4940973;29;20586;-66
2024/04/06 06:17:21;;;;;;;1.17;0.90;;;15.80;97.30;;;;;;4932602;29;20214;-67
2024/04/06 06:19:47;;;;;;;0.70;0.70;;;15.90;97.30;;;;;;4929607;29;20231;-66
2024/04/06 06:22:12;;;;;;;1.57;1.47;;;16.00;97.30;;;;;;4936663;29;20212;-66
2024/04/06 06:24:41;;;;;;;1.10;1.00;;;16.10;97.30;;;;;;4928649;29;20228;-67
2024/04/06 06:27:07;;;;;;;1.37;1.30;;;16.20;97.30;;;;;;4928128;29;20282;-67
2024/04/06 06:29:33;;;;;;;0.87;0.80;;;16.20;97.30;;;;;;4938746;28;20587;-67
2024/04/06 06:31:59;;;;;;;0.90;0.80;;;16.20;97.30;;;;;;4949587;29;20226;-67
2024/04/06 06:34:24;;;;;;;0.80;0.70;;;16.20;97.30;;;;;;4943431;28;20438;-66
2024/04/06 06:36:50;;;;;;;2.20;1.63;;;16.20;97.30;;;;;;4930664;29;20567;-67
2024/04/06 06:39:15;;;;;;;4.67;1.00;;;16.30;97.30;;;;;;4930582;29;20195;-67
2024/04/06 06:41:42;;;;;;;0.90;0.90;;;16.50;97.30;;;;;;4941174;29;20274;-67
2024/04/06 06:44:08;;;;;;;2.10;1.20;;;16.80;97.30;;;;;;4936174;28;20198;-67
2024/04/06 06:46:33;;;;;;;0.90;0.80;;;17.00;97.30;;;;;;4937129;29;20435;-67
2024/04/06 06:48:59;;;;;;;0.90;0.80;;;17.20;97.30;;;;;;4938608;28;20204;-67
2024/04/06 06:51:25;;;;;;;0.70;0.70;;;17.30;97.30;;;;;;4930513;29;20697;-67
2024/04/06 06:53:51;;;;;;;0.70;0.60;;;17.40;97.30;;;;;;4930563;29;20188;-67
2024/04/06 06:56:17;;;;;;;0.70;0.70;;;17.50;97.30;;;;;;4937873;29;20885;-67
2024/04/06 06:58:42;;;;;;;1.47;1.30;;;17.50;97.30;;;;;;4949779;28;20510;-67
2024/04/06 07:01:08;;;;;;;6.53;2.30;;;17.50;97.30;;;;;;4949680;29;20207;-67
2024/04/06 07:03:33;;;;;;;0.90;0.80;;;17.50;97.30;;;;;;4949586;29;20188;-67
2024/04/06 07:05:59;;;;;;;0.93;0.90;;;17.60;97.30;;;;;;4949465;28;20262;-67
2024/04/06 07:08:24;;;;;;;0.90;0.83;;;17.60;97.30;;;;;;4949898;29;20214;-66
2024/04/06 07:10:50;;;;;;;1.00;0.97;;;17.60;97.30;;;;;;4930236;29;20319;-67
2024/04/06 07:13:15;;;;;;;0.90;0.80;;;17.60;97.30;;;;;;4940785;29;20212;-67
2024/04/06 07:15:41;;;;;;;1.37;1.17;;;17.60;97.30;;;;;;4938843;29;20657;-67
2024/04/06 07:18:06;;;;;;;1.40;1.30;;;17.60;97.30;;;;;;4961179;28;20234;-67
2024/04/06 07:20:32;;;;;;;2.30;1.40;;;17.60;97.30;;;;;;4950712;28;20199;-67
2024/04/06 07:22:57;;;;;;;0.90;0.80;;;17.60;97.30;;;;;;4960739;28;20559;-67
2024/04/06 07:25:23;;;;;;;1.30;1.00;;;17.60;97.30;;;;;;4944971;28;20564;-67
2024/04/06 07:27:48;;;;;;;1.20;1.10;;;17.70;97.30;;;;;;4953068;29;20211;-67
2024/04/06 07:30:14;;;;;;;0.73;0.70;;;17.80;97.30;;;;;;4952660;28;20570;-67
2024/04/06 07:32:39;;;;;;;1.20;1.10;;;18.00;97.30;;;;;;4945229;29;20694;-67
2024/04/06 07:35:08;;;;;;;1.97;0.83;;;18.10;97.30;;;;;;4947371;28;20284;-67
2024/04/06 07:37:34;;;;;;;1.00;0.83;;;18.30;97.30;;;;;;4944551;28;20218;-68
2024/04/06 07:39:59;;;;;;;3.00;1.17;;;18.50;97.30;;;;;;4937983;29;20463;-67
2024/04/06 07:42:25;;;;;;;1.47;1.30;;;18.70;97.30;;;;;;4944443;28;20225;-67
2024/04/06 07:44:50;;;;;;;0.73;0.70;;;18.80;96.30;;;;;;4933354;29;20184;-67
2024/04/06 07:47:16;;;;;;;0.90;0.80;;;18.80;96.30;;;;;;4940289;29;20345;-67
2024/04/06 07:49:41;;;;;;;0.80;0.80;;;19.00;96.10;;;;;;4943340;29;20195;-67
2024/04/06 07:52:07;;;;;;;0.90;0.80;;;19.10;96.10;;;;;;4944405;28;20218;-67
2024/04/06 07:54:33;;;;;;;0.60;0.60;;;19.20;96.00;;;;;;4952142;28;20179;-67
2024/04/06 07:56:58;;;;;;;0.80;0.80;;;19.40;95.90;;;;;;4952482;29;20179;-67
2024/04/06 07:59:24;;;;;;;3.33;1.23;;;19.50;95.10;;;;;;4944435;29;20532;-67
2024/04/06 08:01:49;;;;;;;2.80;0.80;;;19.50;94.70;;;;;;4944277;28;20217;-67
2024/04/06 08:04:15;;;;;;;0.70;0.70;;;19.50;94.50;;;;;;4946237;29;20199;-68
2024/04/06 08:06:40;;;;;;;1.10;0.80;;;19.50;94.00;;;;;;4939610;29;20180;-67
2024/04/06 08:09:08;;;;;;;1.07;1.03;;;19.60;94.40;;;;;;4931471;29;20723;-67
2024/04/06 08:11:34;;;;;;;3.67;1.20;;;19.70;94.60;;;;;;4947220;29;20271;-68
2024/04/06 08:13:59;;;;;;;0.90;0.83;;;19.70;93.90;;;;;;4934493;29;20533;-68
2024/04/06 08:16:25;;;;;;;1.37;1.27;;;19.90;93.90;;;;;;4944360;29;20198;-67
2024/04/06 08:18:50;;;;;;;0.93;0.87;;;20.00;94.00;;;;;;4940741;29;20195;-67
2024/04/06 08:21:16;;;;;;;0.80;0.77;;;20.10;93.70;;;;;;4932927;29;20672;-67
2024/04/06 08:23:41;;;;;;;2.67;0.97;;;20.10;93.40;;;;;;4942205;29;20215;-67
2024/04/06 08:26:07;;;;;;;0.73;0.70;;;20.20;93.60;;;;;;4943881;29;20179;-67
2024/04/06 08:28:32;;;;;;;0.80;0.70;;;20.30;93.00;;;;;;4950703;28;20218;-67
2024/04/06 08:30:58;;;;;;;0.90;0.83;;;20.30;93.10;;;;;;4935986;29;20578;-67
2024/04/06 08:33:23;;;;;;;0.97;0.70;;;20.40;93.60;;;;;;4950260;29;20446;-68
2024/04/06 08:35:58;;;;;;;1.17;1.03;;;20.50;92.50;;;;;;4951374;29;20191;-67
2024/04/06 08:38:23;;;;;;;0.77;0.70;;;20.50;92.30;;;;;;4940683;28;20190;-68
2024/04/06 08:40:51;;;;;;;1.00;0.90;;;20.60;93.10;;;;;;4948448;28;20439;-67
2024/04/06 08:43:17;;;;;;;0.73;0.70;;;20.70;92.90;;;;;;4931372;28;20262;-67
2024/04/06 08:45:44;;;;;;;0.60;0.60;;;20.80;92.20;;;;;;4932298;29;20420;-67
2024/04/06 08:48:11;;;;;;;1.23;0.83;;;20.80;92.50;;;;;;4932485;29;20510;-67
2024/04/06 08:50:37;;;;;;;2.50;0.80;;;21.00;92.40;;;;;;4947946;28;20501;-67
2024/04/06 08:53:06;;;;;;;1.20;1.10;;;21.00;91.60;;;;;;4932378;29;20419;-67
2024/04/06 08:55:32;;;;;;;0.90;0.80;;;21.00;92.60;;;;;;4948138;29;20246;-67
2024/04/06 08:57:59;;;;;;;0.80;0.80;;;21.00;91.60;;;;;;4942220;29;20505;-68
2024/04/06 09:00:29;;;;;;;0.90;0.80;;;21.00;91.70;;;;;;4936371;28;20916;-67
2024/04/06 09:02:55;;;;;;;1.00;0.90;;;21.10;91.70;;;;;;4950945;29;20426;-67
2024/04/06 09:05:20;;;;;;;0.70;0.70;;;21.20;92.50;;;;;;4937101;29;20555;-67
2024/04/06 09:07:51;;;;;;;0.87;0.80;;;21.40;92.20;;;;;;4949486;29;20192;-67
2024/04/06 09:10:17;;;;;;;0.70;0.70;;;21.60;91.90;;;;;;4937439;28;20657;-68
2024/04/06 09:12:42;;;;;;;0.60;0.60;;;21.80;91.40;;;;;;4948738;29;20488;-68
2024/04/06 09:15:14;;;;;;;1.07;0.97;;;21.80;89.90;;;;;;4938594;29;20591;-68
2024/04/06 09:17:39;;;;;;;0.90;0.80;;;21.70;89.80;;;;;;4946933;29;20250;-68
2024/04/06 09:20:06;;;;;;;0.70;0.70;;;21.70;88.90;;;;;;4946626;29;20427;-68
2024/04/06 09:22:31;;;;;;;1.63;1.13;;;21.70;90.30;;;;;;4939637;29;20188;-67
2024/04/06 09:24:57;;;;;;;0.70;0.70;;;21.70;90.30;;;;;;4947307;29;20424;-66
2024/04/06 09:27:23;;;;;;;0.90;0.80;;;21.80;89.80;;;;;;4945779;29;20682;-67
2024/04/06 09:29:48;;;;;;;0.90;0.80;;;21.90;89.30;;;;;;4946723;29;20179;-67
2024/04/06 09:32:18;;;;;;;1.07;0.80;;;22.10;88.40;;;;;;4930980;29;20216;-66
2024/04/06 09:34:51;;;;;;;0.70;0.70;;;22.20;89.10;;;;;;4947764;29;20179;-66
2024/04/06 09:37:24;;;;;;;0.90;0.80;;;22.20;87.70;;;;;;4946673;28;20457;-67
2024/04/06 09:39:50;;;;;;;1.27;1.27;;;22.10;88.30;;;;;;4948442;28;20441;-67
2024/04/06 09:42:18;;;;;;;0.90;0.80;;;22.10;87.80;;;;;;4943275;28;20462;-67
2024/04/06 09:44:44;;;;;;;0.87;0.83;;;22.20;88.00;;;;;;4949245;29;20611;-67
2024/04/06 09:47:12;;;;;;;1.57;1.47;;;22.10;87.10;;;;;;4944703;29;20435;-66
2024/04/06 09:49:39;;;;;;;0.70;0.70;;;22.20;87.40;;;;;;4949943;29;20427;-66
2024/04/06 09:52:05;;;;;;;1.33;1.23;;;22.40;88.40;;;;;;4946987;29;20475;-66
2024/04/06 09:54:31;;;;;;;1.10;1.00;;;22.50;88.00;;;;;;4942073;29;20522;-67
2024/04/06 09:56:58;;;;;;;1.17;0.90;;;22.70;86.70;;;;;;4949381;29;20438;-66
2024/04/06 09:59:27;;;;;;;1.10;1.00;;;22.70;86.90;;;;;;4946633;29;20910;-65
2024/04/06 10:01:54;;;;;;;0.90;0.80;;;22.90;86.50;;;;;;4939493;28;20946;-67
2024/04/06 10:04:28;;;;;;;0.70;0.70;;;23.00;87.10;;;;;;4943996;29;20939;-67
2024/04/06 10:06:54;;;;;;;1.63;0.93;;;23.00;86.20;;;;;;4944705;28;20425;-67
2024/04/06 10:09:20;;;;;;;0.70;0.70;;;23.20;86.70;;;;;;4950281;29;20422;-66
2024/04/06 10:11:46;;;;;;;0.90;0.90;;;23.30;85.20;;;;;;4944395;28;20493;-67
2024/04/06 10:14:12;;;;;;;0.60;0.60;;;23.30;85.80;;;;;;4946206;29;20184;-67
2024/04/06 10:16:39;;;;;;;1.63;1.47;;;23.10;84.60;;;;;;4941575;29;20184;-67
2024/04/06 10:19:08;;;;;;;3.83;1.43;;;23.00;86.30;;;;;;4941777;29;20184;-67
2024/04/06 10:21:34;;;;;;;0.90;0.80;;;23.10;85.80;;;;;;4948523;28;20454;-67
2024/04/06 10:24:08;;;;;;;2.20;0.90;;;23.40;85.90;;;;;;4940653;29;21002;-67
2024/04/06 10:26:35;;;;;;;2.20;0.93;;;23.50;85.30;;;;;;4939580;29;20895;-66
2024/04/06 10:29:01;;;;;;;0.90;0.80;;;23.50;84.30;;;;;;4944867;28;20427;-67
2024/04/06 10:31:27;;;;;;;1.10;1.00;;;23.60;84.70;;;;;;4949574;28;20839;-67
2024/04/06 10:33:53;;;;;;;0.93;0.90;;;23.60;84.10;;;;;;4950157;29;20422;-66
2024/04/06 10:36:19;;;;;;;1.20;1.13;;;23.50;84.60;;;;;;4944793;28;20186;-67
2024/04/06 10:38:45;;;;;;;1.23;0.70;;;23.70;84.10;;;;;;4937613;29;20423;-66
2024/04/06 10:41:10;;;;;;;0.60;0.60;;;23.90;83.90;;;;;;4940394;28;20254;-66
2024/04/06 10:43:36;;;;;;;1.00;0.97;;;24.10;84.00;;;;;;4934199;29;20191;-66
2024/04/06 10:46:03;;;;;;;0.70;0.70;;;24.20;83.10;;;;;;4936149;28;20577;-67
2024/04/06 10:48:29;;;;;;;1.13;1.10;;;24.10;83.30;;;;;;4945615;29;20423;-65
2024/04/06 10:50:56;;;;;;;0.97;0.87;;;24.10;82.60;;;;;;4942628;28;20977;-67
2024/04/06 10:53:22;;;;;;;0.90;0.80;;;24.10;83.00;;;;;;4939601;29;20426;-67
2024/04/06 10:55:48;;;;;;;1.93;1.37;;;24.10;82.50;;;;;;4947504;29;20501;-67
2024/04/06 10:58:15;;;;;;;1.73;1.13;;;24.10;82.10;;;;;;4938642;29;20539;-66
2024/04/06 11:00:41;;;;;;;0.90;0.80;;;24.50;83.60;;;;;;4950246;28;20997;-66
2024/04/06 11:03:07;;;;;;;1.10;1.00;;;24.70;83.70;;;;;;4948608;29;20461;-66
2024/04/06 11:05:35;;;;;;;1.87;1.40;;;24.70;80.90;;;;;;4944849;28;20175;-66
2024/04/06 11:08:02;;;;;;;1.00;0.97;;;24.70;82.00;;;;;;4945681;28;20481;-65
2024/04/06 11:10:28;;;;;;;1.00;0.90;;;24.70;82.00;;;;;;4944593;29;20431;-66
2024/04/06 11:12:57;;;;;;;1.13;1.10;;;24.90;82.70;;;;;;4951449;28;20656;-66
2024/04/06 11:15:23;;;;;;;1.00;0.90;;;25.10;82.20;;;;;;4950485;29;20752;-64
2024/04/06 11:17:50;;;;;;;0.77;0.73;;;25.20;80.80;;;;;;4942762;29;20422;-67
2024/04/06 11:20:16;;;;;;;2.13;1.97;;;25.10;79.60;;;;;;4939856;29;20494;-67
2024/04/06 11:22:42;;;;;;;1.13;1.07;;;24.90;78.90;;;;;;4940756;29;20928;-66
2024/04/06 11:25:13;;;;;;;1.57;1.10;;;24.90;79.70;;;;;;4941159;29;20829;-66
2024/04/06 11:27:45;;;;;;;0.97;0.77;;;25.00;80.90;;;;;;4945108;29;20437;-65
2024/04/06 11:30:11;;;;;;;1.33;1.23;;;25.20;79.70;;;;;;4941360;28;20422;-65
2024/04/06 11:32:36;;;;;;;0.70;0.70;;;25.40;79.50;;;;;;4937542;28;20475;-66
2024/04/06 11:35:02;;;;;;;3.00;1.40;;;25.60;80.00;;;;;;4923858;29;20187;-66
2024/04/06 11:37:27;;;;;;;1.13;1.07;;;25.80;79.00;;;;;;4940408;29;20211;-65
2024/04/06 11:39:53;;;;;;;1.00;0.90;;;26.00;78.40;;;;;;4951331;29;20194;-65
2024/04/06 11:42:18;;;;;;;1.17;1.10;;;26.10;77.80;;;;;;4964046;28;20238;-65
2024/04/06 11:44:44;;;;;;;0.83;0.77;;;26.10;77.00;;;;;;4941430;29;20191;-65
2024/04/06 11:47:11;;;;;;;1.10;1.00;;;26.10;78.20;;;;;;4944935;29;20186;-65
2024/04/06 11:49:36;;;;;;;0.80;0.80;;;26.20;77.50;;;;;;4947118;29;20434;-65
2024/04/06 11:52:02;;;;;;;0.87;0.80;;;26.20;76.90;;;;;;4981188;23;20860;-86
2024/04/06 11:54:27;;;;;;;1.43;1.00;;;26.10;77.10;;;;;;4978297;28;20171;-86
2024/04/06 11:56:54;;;;;;;2.33;1.20;;;25.90;78.20;;;;;;4970238;28;20182;-86
2024/04/06 11:59:20;;;;;;;1.30;1.20;;;25.70;78.00;;;;;;4970278;28;20281;-84
2024/04/06 12:01:45;;;;;;;0.90;0.90;;;25.50;78.40;;;;;;4971077;28;20482;-88
2024/04/06 12:04:11;;;;;;;1.20;1.10;;;25.50;79.90;;;;;;4952620;28;20191;-85
2024/04/06 12:06:36;;;;;;;1.00;0.90;;;25.50;78.20;;;;;;4957329;28;20199;-87
2024/04/06 12:09:05;;;;;;;1.47;1.30;;;25.60;78.80;;;;;;4965708;28;20183;-86
2024/04/06 12:11:31;;;;;;;12.37;2.50;;;25.80;77.60;;;;;;4970153;28;20560;-88
2024/04/06 12:13:56;;;;;;;1.77;1.23;;;25.90;78.10;;;;;;4952785;28;20427;-88
2024/04/06 12:16:22;;;;;;;0.70;0.70;;;26.20;77.10;;;;;;4961016;28;20547;-85
2024/04/06 12:18:47;;;;;;;0.83;0.70;;;26.40;76.70;;;;;;4956858;28;20277;-86
2024/04/06 12:21:13;;;;;;;1.00;0.80;;;26.60;75.90;;;;;;4957272;28;20205;-88
2024/04/06 12:23:38;;;;;;;1.03;0.90;;;27.00;77.70;;;;;;4955588;28;20458;-86
2024/04/06 12:26:04;;;;;;;1.03;0.90;;;27.10;75.10;;;;;;4948289;28;20187;-86
2024/04/06 12:28:30;;;;;;;2.17;1.30;;;27.10;74.70;;;;;;4957277;28;20266;-84
2024/04/06 12:30:55;;;;;;;0.90;0.80;;;27.30;75.70;;;;;;4959739;28;20230;-85
2024/04/06 12:33:21;;;;;;;0.73;0.73;;;27.50;75.30;;;;;;4957411;28;20705;-86
2024/04/06 12:35:48;;;;;;;3.70;1.10;;;27.80;74.80;;;;;;4952266;28;20186;-85
2024/04/06 12:38:14;;;;;;;1.67;1.20;;;28.00;72.80;;;;;;4954439;28;20176;-85
2024/04/06 12:40:40;;;;;;;0.77;0.70;;;27.90;73.90;;;;;;4955838;28;20442;-84
2024/04/06 12:43:05;;;;;;;1.37;1.03;;;27.80;72.80;;;;;;4946966;28;20418;-85
2024/04/06 12:45:31;;;;;;;1.00;0.97;;;28.10;74.00;;;;;;4944257;28;20180;-84
2024/04/06 12:47:56;;;;;;;1.03;0.87;;;28.30;73.60;;;;;;4945870;28;20638;-85
2024/04/06 12:50:22;;;;;;;1.00;0.90;;;28.20;72.10;;;;;;4954346;28;20174;-84
2024/04/06 12:52:47;;;;;;;0.90;0.80;;;27.90;73.00;;;;;;4952769;28;20277;-85
2024/04/06 12:55:13;;;;;;;0.80;0.70;;;28.10;74.20;;;;;;4946314;28;20624;-86
2024/04/06 12:57:42;;;;;;;0.90;0.80;;;28.00;72.70;;;;;;4948575;28;21013;-85
2024/04/06 13:00:14;;;;;;;2.60;1.00;;;28.20;73.20;;;;;;4940830;28;20598;-85
2024/04/06 13:02:42;;;;;;;1.20;0.63;;;28.50;74.60;;;;;;4944887;28;20997;-86
2024/04/06 13:05:08;;;;;;;1.03;0.93;;;28.80;73.30;;;;;;4945224;28;20434;-86
2024/04/06 13:07:34;;;;;;;1.80;0.90;;;29.00;72.10;;;;;;4945737;28;20749;-85
2024/04/06 13:10:00;;;;;;;2.17;1.30;;;29.00;70.60;;;;;;4947337;28;20423;-86
2024/04/06 13:12:33;;;;;;;1.10;0.90;;;29.10;72.60;;;;;;4947256;28;21094;-86
2024/04/06 13:15:08;;;;;;;3.33;0.80;;;29.20;70.10;;;;;;4942680;28;20541;-85
2024/04/06 13:17:35;;;;;;;1.30;1.10;;;29.40;72.70;;;;;;4943715;28;20433;-85
2024/04/06 13:22:43;;;;;;;0.93;0.83;;;29.30;69.00;;;;;;4947974;28;21068;-85
2024/04/06 13:25:09;;;;;;;1.13;1.07;;;28.70;70.80;;;;;;4943468;28;20429;-85
2024/04/06 13:27:35;;;;;;;1.10;0.90;;;28.70;69.80;;;;;;4945342;28;20506;-85
2024/04/06 13:30:00;;;;;;;0.60;0.60;;;29.00;70.70;;;;;;4951654;28;20998;-86
2024/04/06 13:32:26;;;;;;;0.83;0.73;;;29.20;69.50;;;;;;4939785;28;20589;-86
2024/04/06 13:34:53;;;;;;;1.57;1.40;;;29.70;69.50;;;;;;4944428;28;20195;-85
2024/04/06 13:37:19;;;;;;;1.03;0.93;;;29.90;69.50;;;;;;4939067;28;20176;-85
2024/04/06 13:39:47;;;;;;;1.93;0.70;;;29.70;67.40;;;;;;4948245;28;20425;-85
2024/04/06 13:42:14;;;;;;;1.10;1.00;;;29.50;68.60;;;;;;4944239;28;20517;-85
2024/04/06 13:44:43;;;;;;;0.93;0.83;;;29.60;67.30;;;;;;4951369;28;21020;-85
2024/04/06 13:47:09;;;;;;;2.20;1.50;;;29.90;68.60;;;;;;4942067;28;20443;-86
2024/04/06 13:49:34;;;;;;;1.40;1.07;;;30.10;67.80;;;;;;4943860;28;20567;-86
2024/04/06 13:52:01;;;;;;;0.90;0.80;;;30.10;66.90;;;;;;4944973;28;20479;-86
2024/04/06 13:54:26;;;;;;;0.83;0.73;;;29.80;69.50;;;;;;4943043;28;20315;-86
2024/04/06 13:56:52;;;;;;;1.33;0.90;;;29.90;67.10;;;;;;4948828;28;20992;-85
2024/04/06 13:59:19;;;;;;;0.80;0.77;;;30.10;67.30;;;;;;4941176;28;20596;-86
2024/04/06 14:01:44;;;;;;;1.00;0.90;;;30.50;68.70;;;;;;4944419;28;20984;-86
2024/04/06 14:04:10;;;;;;;0.90;0.80;;;30.70;69.10;;;;;;4944540;28;20433;-85
2024/04/06 14:06:36;;;;;;;1.50;1.30;;;30.60;66.60;;;;;;4942743;28;20180;-84
2024/04/06 14:09:02;;;;;;;0.93;0.87;;;30.80;66.60;;;;;;4947148;28;20438;-85
2024/04/06 14:11:32;;;;;;;0.97;0.87;;;30.90;67.50;;;;;;4942139;28;20207;-85
2024/04/06 14:14:01;;;;;;;0.67;0.63;;;30.60;65.70;;;;;;4947120;28;20195;-85
2024/04/06 14:16:30;;;;;;;0.87;0.80;;;30.60;68.20;;;;;;4942053;28;20499;-86
2024/04/06 14:18:57;;;;;;;3.50;1.17;;;30.50;67.40;;;;;;4942640;28;20481;-86
2024/04/06 14:21:22;;;;;;;0.87;0.83;;;30.30;66.70;;;;;;4941333;28;20522;-86
2024/04/06 14:23:48;;;;;;;1.00;1.00;;;30.50;68.10;;;;;;4943208;28;20526;-86
2024/04/06 14:26:14;;;;;;;0.80;0.70;;;30.60;68.60;;;;;;4948410;28;20194;-85
2024/04/06 14:28:40;;;;;;;0.67;0.63;;;30.90;67.40;;;;;;4947763;28;20187;-86
2024/04/06 14:31:06;;;;;;;2.73;1.40;;;31.30;67.70;;;;;;4940000;28;20742;-86
2024/04/06 14:33:32;;;;;;;0.60;0.50;;;31.50;67.10;;;;;;4949967;28;20416;-85
2024/04/06 14:35:58;;;;;;;2.10;0.80;;;31.60;67.00;;;;;;4947265;28;20422;-85
2024/04/06 14:38:24;;;;;;;4.53;1.53;;;31.40;65.50;;;;;;4951113;28;20418;-85
2024/04/06 14:40:50;;;;;;;3.43;1.13;;;31.30;65.60;;;;;;4948613;28;20423;-86
2024/04/06 14:43:15;;;;;;;0.90;0.80;;;31.10;66.60;;;;;;4948825;28;20182;-86
2024/04/06 14:45:41;;;;;;;1.03;0.97;;;31.10;66.50;;;;;;4948133;28;20198;-86
2024/04/06 14:48:06;;;;;;;0.93;0.90;;;31.00;65.60;;;;;;4945547;28;20175;-86
2024/04/06 14:50:32;;;;;;;1.03;0.93;;;30.80;66.00;;;;;;4951562;28;20179;-85
2024/04/06 14:52:58;;;;;;;0.70;0.70;;;31.20;67.20;;;;;;4950860;28;20815;-86
2024/04/06 14:55:23;;;;;;;5.70;1.00;;;31.30;65.00;;;;;;4947421;28;20254;-85
2024/04/06 14:57:49;;;;;;;0.90;0.80;;;31.70;65.60;;;;;;4948596;28;20214;-86
2024/04/06 15:00:15;;;;;;;0.83;0.73;;;31.90;65.70;;;;;;4943867;28;20676;-85
2024/04/06 15:02:42;;;;;;;1.10;0.87;;;31.90;63.60;;;;;;4947757;28;20203;-85
2024/04/06 15:05:08;;;;;;;1.33;0.90;;;31.80;63.20;;;;;;4950131;28;20439;-86
2024/04/06 15:07:34;;;;;;;1.40;0.80;;;31.40;62.90;;;;;;4952512;28;20570;-85
2024/04/06 15:10:00;;;;;;;1.73;1.03;;;31.00;62.30;;;;;;4950922;28;20318;-86
2024/04/06 15:12:25;;;;;;;0.73;0.70;;;30.70;62.80;;;;;;4948344;28;20569;-86
2024/04/06 15:14:51;;;;;;;0.60;0.60;;;30.70;63.00;;;;;;4950011;28;20256;-86
2024/04/06 15:17:17;;;;;;;1.03;0.80;;;31.00;63.20;;;;;;4947560;28;20187;-86
2024/04/06 15:19:42;;;;;;;1.23;1.10;;;31.20;61.20;;;;;;4948626;28;20198;-86
2024/04/06 15:22:10;;;;;;;0.77;0.70;;;31.40;61.40;;;;;;4947425;28;20203;-86
2024/04/06 15:24:36;;;;;;;0.80;0.70;;;31.60;62.60;;;;;;4947796;28;20832;-86
2024/04/06 15:27:01;;;;;;;0.90;0.90;;;31.60;61.50;;;;;;4947633;28;20462;-86
2024/04/06 15:29:27;;;;;;;0.90;0.90;;;31.90;61.30;;;;;;4948762;28;20187;-86
2024/04/06 15:31:52;;;;;;;1.83;1.40;;;32.10;61.10;;;;;;4950776;28;20301;-87
2024/04/06 15:34:18;;;;;;;1.30;1.23;;;32.20;61.30;;;;;;4951268;28;20648;-86
2024/04/06 15:36:43;;;;;;;1.33;0.80;;;31.90;59.80;;;;;;4954699;28;20202;-86
2024/04/06 15:39:26;;;;;;;1.63;1.10;;;31.90;60.00;;;;;;4951923;28;20544;-86
2024/04/06 15:41:53;;;;;;;2.20;0.90;;;31.40;60.40;;;;;;4948482;28;20217;-86
2024/04/06 15:44:20;;;;;;;0.90;0.80;;;30.90;61.50;;;;;;4948816;28;20422;-86
2024/04/06 15:46:46;;;;;;;1.20;1.10;;;30.90;61.80;;;;;;4943093;28;20509;-87
2024/04/06 15:49:14;;;;;;;0.83;0.77;;;30.60;61.10;;;;;;4951814;28;20506;-86
2024/04/06 15:51:42;;;;;;;0.93;0.83;;;30.20;62.20;;;;;;4948618;28;20741;-87
2024/04/06 15:54:07;;;;;;;0.90;0.90;;;30.30;61.30;;;;;;4948802;28;20422;-86
2024/04/06 15:56:33;;;;;;;0.70;0.70;;;30.90;61.70;;;;;;4949332;28;20435;-87
2024/04/06 15:58:58;;;;;;;0.60;0.60;;;31.40;62.20;;;;;;4949795;28;20197;-86
2024/04/06 16:01:24;;;;;;;1.97;1.00;;;31.70;61.50;;;;;;4948390;28;20244;-87
2024/04/06 16:03:49;;;;;;;0.80;0.80;;;32.00;61.50;;;;;;4948803;28;20186;-86
2024/04/06 16:06:15;;;;;;;1.47;1.00;;;32.20;60.00;;;;;;4947282;28;20186;-87
2024/04/06 16:08:40;;;;;;;0.90;0.80;;;32.40;59.90;;;;;;4948193;28;20223;-87
2024/04/06 16:11:07;;;;;;;2.00;1.20;;;32.80;59.80;;;;;;4950482;28;20479;-86
2024/04/06 16:13:33;;;;;;;0.93;0.90;;;33.00;59.70;;;;;;4949133;28;20183;-86
2024/04/06 16:15:58;;;;;;;0.70;0.63;;;32.60;58.20;;;;;;4945314;28;20511;-86
2024/04/06 16:18:24;;;;;;;0.87;0.77;;;32.50;58.90;;;;;;4952323;28;20427;-86
2024/04/06 16:20:49;;;;;;;0.90;0.80;;;32.70;58.50;;;;;;4950783;28;20190;-86
2024/04/06 16:23:15;;;;;;;0.93;0.90;;;33.00;58.00;;;;;;4948614;28;20713;-87
2024/04/06 16:25:42;;;;;;;0.70;0.67;;;33.20;57.90;;;;;;4946183;28;20665;-86
2024/04/06 16:28:08;;;;;;;1.00;0.90;;;33.40;56.90;;;;;;4949877;28;20258;-87
2024/04/06 16:30:33;;;;;;;0.80;0.70;;;33.00;56.60;;;;;;4948982;28;20424;-87
2024/04/06 16:32:59;;;;;;;1.40;1.00;;;32.60;56.80;;;;;;4949722;28;20521;-87
2024/04/06 16:35:24;;;;;;;0.83;0.80;;;32.70;56.70;;;;;;4946747;28;20182;-87
2024/04/06 16:37:52;;;;;;;1.17;1.00;;;32.40;57.30;;;;;;4949956;28;20234;-86
2024/04/06 16:40:18;;;;;;;2.23;1.40;;;31.50;57.40;;;;;;4948947;28;20210;-87
2024/04/06 16:42:43;;;;;;;1.07;1.00;;;31.10;58.50;;;;;;4946496;28;20457;-86
2024/04/06 16:45:09;;;;;;;1.33;1.23;;;30.80;58.70;;;;;;4949606;28;20419;-86